Caldas1b

Aeroportos (Relatórios METAR)


LPPT - Lisboa
Distância da estação: SSE 78km
Actualizado: 20/06/2024 20:00
Muito nublado
Muito nublado
 Vento de N
Vento: N 19 km/h
Temperatura: 19°C
Pt. Orvalho: 13°C
Humidade: 68%
Barómetro: 1021 hPa
Nuvens: Muito nublado
Visibilidade: 10 km
Nebulosidade: Pouco Nublado 762 m
Muito nublado 1036 m
2024/06/20 19:00 LPPT 201900Z 35010KT 9999 FEW025 BKN034 19/13 Q1021
LPPR - Porto
Distância da estação: NW 205km
Actualizado: 20/06/2024 20:00
Pouco Nublado
Pouco Nublado
 Vento de NNW
Vento: NNW 24 km/h
Temperatura: 17°C
Pt. Orvalho: 13°C
Humidade: 77%
Barómetro: 1020 hPa
Nuvens: Pouco Nublado
Visibilidade: 10 km
Nebulosidade: Pouco Nublado 914 m
2024/06/20 19:00 LPPR 201900Z 33013KT 9999 FEW030 17/13 Q1020
 
LPFR - Faro
Distância da estação: SE 286km
Actualizado: 20/06/2024 20:00
Céu Limpo
Céu Limpo
 Vento de W
Vento: W 24 km/h
Temperatura: 21°C
Pt. Orvalho: 14°C
Humidade: 64%
Barómetro: 1019 hPa
Resumo: Céu Limpo
Visibilidade: maior que 10 km
2024/06/20 19:00 LPFR 201900Z 26013KT CAVOK 21/14 Q1019
LPBJ - Beja
Distância da estação: ESE 190km
Actualizado: 20/06/2024 20:00
Pouco Nublado
Pouco Nublado
 Vento de NW
Vento: NW 9 km/h
Temperatura: 21°C
Pt. Orvalho: 12°C
Humidade: 57%
Barómetro: 1020 hPa
Nuvens: Pouco Nublado
Visibilidade: 10 km
Nebulosidade: Pouco Nublado 914 m
2024/06/20 19:00 LPBJ 201900Z 32005KT 9999 FEW030 21/12 Q1020
 
LPMA - Funchal
Distância da estação: SSW 1025km
Actualizado: 20/06/2024 20:00
Parc. nublado
Parc. nublado
 Vento de NNE
Vento: NNE 26 km/h, Rajada: 46 km/h
Nuvens: Parc. nublado
Visibilidade: 10 km
Nebulosidade: Parc. nublado 549 m
2024/06/20 19:00 LPMA 201900Z 03014G25KT 360V080 9999 SCT018 2
LPPD - Ponta Delgada
Distância da estação: W 1450km
Actualizado: 20/06/2024 20:00
Pouco Nublado
Pouco Nublado
 Vento de SE
Vento: SE 13 km/h
Temperatura: 21°C
Pt. Orvalho: 12°C
Humidade: 57%
Barómetro: 1028 hPa
Nuvens: Pouco Nublado
Visibilidade: 10 km
Nebulosidade: Pouco Nublado 762 m
2024/06/20 19:00 LPPD 201900Z 14007KT 9999 FEW025 21/12 Q1028
 
LPCS - Cascais
Distância da estação: SSW 77km
Actualizado: 20/06/2024 20:00
Parc. nublado
Parc. nublado
 Vento de NNW
Vento: NNW 26 km/h
Nuvens: Parc. nublado
Visibilidade: 10 km
Nebulosidade: Parc. nublado 732 m
2024/06/20 19:00 LPCS 201900Z 34014KT 310V010 9999 SCT024 18/1
LPMR - Monte Real
Distância da estação: N 55km
Actualizado: 20/06/2024 18:00
Desatualizado
Muito nublado
Muito nublado
 Vento de NNW
Vento: NNW 28 km/h
Temperatura: 17°C
Pt. Orvalho: 13°C
Humidade: 77%
Barómetro: 1021 hPa
Nuvens: Muito nublado
Visibilidade: 10 km
Nebulosidade: Muito nublado 488 m
2024/06/20 17:00 LPMR 201700Z 34015KT 310V010 9999 BKN016 17/13 Q1021

Phoenix Radar Flight Tracking

Map courtesy of flightradar24.com